sensor_id;sensor_type;location;lat;lon;timestamp;pressure;altitude;pressure_sealevel;temperature
66372;BMP180;53168;51.146;17.120;2023-12-04T00:02:30;100782.60;;;-5.90
66372;BMP180;53168;51.146;17.120;2023-12-04T00:05:07;100784.00;;;-5.90
66372;BMP180;53168;51.146;17.120;2023-12-04T00:07:41;100785.00;;;-5.92
66372;BMP180;53168;51.146;17.120;2023-12-04T00:10:15;100787.60;;;-5.98
66372;BMP180;53168;51.146;17.120;2023-12-04T00:12:49;100794.20;;;-6.00
66372;BMP180;53168;51.146;17.120;2023-12-04T00:15:23;100792.80;;;-6.02
66372;BMP180;53168;51.146;17.120;2023-12-04T00:17:57;100790.20;;;-6.10
66372;BMP180;53168;51.146;17.120;2023-12-04T00:20:31;100787.40;;;-6.10
66372;BMP180;53168;51.146;17.120;2023-12-04T00:23:05;100785.40;;;-6.20
66372;BMP180;53168;51.146;17.120;2023-12-04T00:25:39;100784.20;;;-6.28
66372;BMP180;53168;51.146;17.120;2023-12-04T00:28:13;100781.80;;;-6.30
66372;BMP180;53168;51.146;17.120;2023-12-04T00:30:47;100785.20;;;-6.30
66372;BMP180;53168;51.146;17.120;2023-12-04T00:33:21;100782.40;;;-6.40
66372;BMP180;53168;51.146;17.120;2023-12-04T00:35:55;100787.20;;;-6.50
66372;BMP180;53168;51.146;17.120;2023-12-04T00:38:43;100791.40;;;-6.50
66372;BMP180;53168;51.146;17.120;2023-12-04T00:41:18;100790.00;;;-6.56
66372;BMP180;53168;51.146;17.120;2023-12-04T00:43:52;100793.20;;;-6.60
66372;BMP180;53168;51.146;17.120;2023-12-04T00:46:26;100798.20;;;-6.70
66372;BMP180;53168;51.146;17.120;2023-12-04T00:49:00;100801.60;;;-6.74
66372;BMP180;53168;51.146;17.120;2023-12-04T00:51:41;100798.40;;;-6.80
66372;BMP180;53168;51.146;17.120;2023-12-04T00:54:15;100804.20;;;-6.80
66372;BMP180;53168;51.146;17.120;2023-12-04T00:56:49;100805.40;;;-6.90
66372;BMP180;53168;51.146;17.120;2023-12-04T00:59:23;100805.60;;;-6.90
66372;BMP180;53168;51.146;17.120;2023-12-04T01:01:57;100800.20;;;-6.92
66372;BMP180;53168;51.146;17.120;2023-12-04T01:04:32;100805.60;;;-7.00
66372;BMP180;53168;51.146;17.120;2023-12-04T01:07:06;100800.60;;;-7.00
66372;BMP180;53168;51.146;17.120;2023-12-04T01:09:40;100797.20;;;-7.10
66372;BMP180;53168;51.146;17.120;2023-12-04T01:12:14;100800.40;;;-7.10
66372;BMP180;53168;51.146;17.120;2023-12-04T01:14:48;100803.00;;;-7.10
66372;BMP180;53168;51.146;17.120;2023-12-04T01:17:22;100802.00;;;-7.14
66372;BMP180;53168;51.146;17.120;2023-12-04T01:19:56;100799.20;;;-7.20
66372;BMP180;53168;51.146;17.120;2023-12-04T01:22:30;100798.00;;;-7.20
66372;BMP180;53168;51.146;17.120;2023-12-04T01:25:07;100801.40;;;-7.20
66372;BMP180;53168;51.146;17.120;2023-12-04T01:27:42;100796.80;;;-7.20
66372;BMP180;53168;51.146;17.120;2023-12-04T01:30:16;100804.60;;;-7.20
66372;BMP180;53168;51.146;17.120;2023-12-04T01:32:50;100802.40;;;-7.30
66372;BMP180;53168;51.146;17.120;2023-12-04T01:35:24;100810.40;;;-7.30
66372;BMP180;53168;51.146;17.120;2023-12-04T01:37:58;100813.60;;;-7.30
66372;BMP180;53168;51.146;17.120;2023-12-04T01:40:33;100816.80;;;-7.40
66372;BMP180;53168;51.146;17.120;2023-12-04T01:43:06;100821.60;;;-7.40
66372;BMP180;53168;51.146;17.120;2023-12-04T01:45:40;100821.20;;;-7.50
66372;BMP180;53168;51.146;17.120;2023-12-04T01:48:17;100820.80;;;-7.54
66372;BMP180;53168;51.146;17.120;2023-12-04T01:50:52;100817.80;;;-7.60
66372;BMP180;53168;51.146;17.120;2023-12-04T01:53:27;100813.60;;;-7.70
66372;BMP180;53168;51.146;17.120;2023-12-04T01:56:01;100814.40;;;-7.70
66372;BMP180;53168;51.146;17.120;2023-12-04T01:58:36;100811.60;;;-7.80
66372;BMP180;53168;51.146;17.120;2023-12-04T02:01:11;100806.40;;;-7.80
66372;BMP180;53168;51.146;17.120;2023-12-04T02:03:45;100811.20;;;-7.80
66372;BMP180;53168;51.146;17.120;2023-12-04T02:06:20;100801.80;;;-7.90
66372;BMP180;53168;51.146;17.120;2023-12-04T02:08:54;100801.00;;;-7.90
66372;BMP180;53168;51.146;17.120;2023-12-04T02:11:29;100797.20;;;-7.98
66372;BMP180;53168;51.146;17.120;2023-12-04T02:14:03;100796.60;;;-7.98
66372;BMP180;53168;51.146;17.120;2023-12-04T02:16:41;100793.00;;;-8.00
66372;BMP180;53168;51.146;17.120;2023-12-04T02:19:16;100799.20;;;-8.00
66372;BMP180;53168;51.146;17.120;2023-12-04T02:21:50;100797.20;;;-8.10
66372;BMP180;53168;51.146;17.120;2023-12-04T02:24:24;100794.80;;;-8.10
66372;BMP180;53168;51.146;17.120;2023-12-04T02:27:07;100793.60;;;-8.14
66372;BMP180;53168;51.146;17.120;2023-12-04T02:29:56;100791.80;;;-8.20
66372;BMP180;53168;51.146;17.120;2023-12-04T02:32:33;100793.20;;;-8.20
66372;BMP180;53168;51.146;17.120;2023-12-04T02:35:14;100794.40;;;-8.30
66372;BMP180;53168;51.146;17.120;2023-12-04T02:37:50;100794.60;;;-8.32
66372;BMP180;53168;51.146;17.120;2023-12-04T02:40:26;100792.80;;;-8.40
66372;BMP180;53168;51.146;17.120;2023-12-04T02:43:01;100792.20;;;-8.40
66372;BMP180;53168;51.146;17.120;2023-12-04T02:45:34;100786.00;;;-8.40
66372;BMP180;53168;51.146;17.120;2023-12-04T02:48:09;100782.00;;;-8.40
66372;BMP180;53168;51.146;17.120;2023-12-04T02:50:43;100782.60;;;-8.40
66372;BMP180;53168;51.146;17.120;2023-12-04T02:53:17;100785.80;;;-8.40
66372;BMP180;53168;51.146;17.120;2023-12-04T02:55:51;100785.40;;;-8.40
66372;BMP180;53168;51.146;17.120;2023-12-04T02:58:25;100781.80;;;-8.40
66372;BMP180;53168;51.146;17.120;2023-12-04T03:00:59;100787.40;;;-8.50
66372;BMP180;53168;51.146;17.120;2023-12-04T03:03:33;100789.40;;;-8.50
66372;BMP180;53168;51.146;17.120;2023-12-04T03:06:10;100786.00;;;-8.56
66372;BMP180;53168;51.146;17.120;2023-12-04T03:08:44;100791.00;;;-8.50
66372;BMP180;53168;51.146;17.120;2023-12-04T03:11:18;100784.40;;;-8.50
66372;BMP180;53168;51.146;17.120;2023-12-04T03:13:52;100786.00;;;-8.48
66372;BMP180;53168;51.146;17.120;2023-12-04T03:16:26;100785.60;;;-8.50
66372;BMP180;53168;51.146;17.120;2023-12-04T03:19:00;100791.80;;;-8.42
66372;BMP180;53168;51.146;17.120;2023-12-04T03:21:34;100790.80;;;-8.40
66372;BMP180;53168;51.146;17.120;2023-12-04T03:24:08;100795.20;;;-8.40
66372;BMP180;53168;51.146;17.120;2023-12-04T03:26:45;100795.00;;;-8.40
66372;BMP180;53168;51.146;17.120;2023-12-04T03:29:18;100799.20;;;-8.40
66372;BMP180;53168;51.146;17.120;2023-12-04T03:31:52;100801.00;;;-8.40
66372;BMP180;53168;51.146;17.120;2023-12-04T03:34:26;100805.40;;;-8.50
66372;BMP180;53168;51.146;17.120;2023-12-04T03:37:02;100803.40;;;-8.50
66372;BMP180;53168;51.146;17.120;2023-12-04T03:39:36;100809.60;;;-8.50
66372;BMP180;53168;51.146;17.120;2023-12-04T03:42:10;100813.80;;;-8.50
66372;BMP180;53168;51.146;17.120;2023-12-04T03:44:44;100809.80;;;-8.50
66372;BMP180;53168;51.146;17.120;2023-12-04T03:47:18;100812.20;;;-8.50
66372;BMP180;53168;51.146;17.120;2023-12-04T03:49:53;100809.40;;;-8.50
66372;BMP180;53168;51.146;17.120;2023-12-04T03:52:27;100807.60;;;-8.60
66372;BMP180;53168;51.146;17.120;2023-12-04T03:55:01;100802.40;;;-8.70
66372;BMP180;53168;51.146;17.120;2023-12-04T03:57:35;100805.20;;;-8.70
66372;BMP180;53168;51.146;17.120;2023-12-04T04:00:13;100803.00;;;-8.80
66372;BMP180;53168;51.146;17.120;2023-12-04T04:02:48;100806.20;;;-8.80
66372;BMP180;53168;51.146;17.120;2023-12-04T04:05:21;100804.20;;;-8.90
66372;BMP180;53168;51.146;17.120;2023-12-04T04:07:55;100805.80;;;-9.00
66372;BMP180;53168;51.146;17.120;2023-12-04T04:10:29;100807.40;;;-9.00
66372;BMP180;53168;51.146;17.120;2023-12-04T04:13:02;100802.80;;;-9.00
66372;BMP180;53168;51.146;17.120;2023-12-04T04:15:36;100799.40;;;-9.02
66372;BMP180;53168;51.146;17.120;2023-12-04T04:18:10;100796.00;;;-9.04
66372;BMP180;53168;51.146;17.120;2023-12-04T04:20:47;100792.20;;;-9.10
66372;BMP180;53168;51.146;17.120;2023-12-04T04:23:21;100786.80;;;-9.10
66372;BMP180;53168;51.146;17.120;2023-12-04T04:25:55;100782.00;;;-9.10
66372;BMP180;53168;51.146;17.120;2023-12-04T04:28:28;100776.20;;;-9.10
66372;BMP180;53168;51.146;17.120;2023-12-04T04:31:03;100769.40;;;-9.10
66372;BMP180;53168;51.146;17.120;2023-12-04T04:33:37;100772.40;;;-9.10
66372;BMP180;53168;51.146;17.120;2023-12-04T04:36:13;100772.60;;;-9.10
66372;BMP180;53168;51.146;17.120;2023-12-04T04:38:47;100764.00;;;-9.10
66372;BMP180;53168;51.146;17.120;2023-12-04T04:41:22;100763.80;;;-9.10
66372;BMP180;53168;51.146;17.120;2023-12-04T04:43:55;100761.00;;;-9.10
66372;BMP180;53168;51.146;17.120;2023-12-04T04:46:29;100766.60;;;-9.10
66372;BMP180;53168;51.146;17.120;2023-12-04T04:49:03;100765.20;;;-9.10
66372;BMP180;53168;51.146;17.120;2023-12-04T04:51:40;100765.20;;;-9.10
66372;BMP180;53168;51.146;17.120;2023-12-04T04:54:14;100775.80;;;-9.10
66372;BMP180;53168;51.146;17.120;2023-12-04T04:56:49;100777.20;;;-9.10
66372;BMP180;53168;51.146;17.120;2023-12-04T04:59:24;100768.00;;;-9.20
66372;BMP180;53168;51.146;17.120;2023-12-04T05:01:58;100764.40;;;-9.22
66372;BMP180;53168;51.146;17.120;2023-12-04T05:04:32;100765.40;;;-9.28
66372;BMP180;53168;51.146;17.120;2023-12-04T05:07:07;100763.80;;;-9.30
66372;BMP180;53168;51.146;17.120;2023-12-04T05:09:41;100772.20;;;-9.30
66372;BMP180;53168;51.146;17.120;2023-12-04T05:12:15;100769.40;;;-9.30
66372;BMP180;53168;51.146;17.120;2023-12-04T05:14:49;100762.00;;;-9.30
66372;BMP180;53168;51.146;17.120;2023-12-04T05:17:22;100765.00;;;-9.40
66372;BMP180;53168;51.146;17.120;2023-12-04T05:19:56;100768.20;;;-9.40
66372;BMP180;53168;51.146;17.120;2023-12-04T05:22:32;100762.80;;;-9.46
66372;BMP180;53168;51.146;17.120;2023-12-04T05:25:08;100759.80;;;-9.50
66372;BMP180;53168;51.146;17.120;2023-12-04T05:27:42;100754.40;;;-9.50
66372;BMP180;53168;51.146;17.120;2023-12-04T05:30:18;100745.20;;;-9.56
66372;BMP180;53168;51.146;17.120;2023-12-04T05:32:52;100750.80;;;-9.58
66372;BMP180;53168;51.146;17.120;2023-12-04T05:35:27;100753.20;;;-9.58
66372;BMP180;53168;51.146;17.120;2023-12-04T05:38:01;100757.60;;;-9.60
66372;BMP180;53168;51.146;17.120;2023-12-04T05:40:35;100750.40;;;-9.60
66372;BMP180;53168;51.146;17.120;2023-12-04T05:43:09;100748.00;;;-9.60
66372;BMP180;53168;51.146;17.120;2023-12-04T05:45:43;100746.40;;;-9.60
66372;BMP180;53168;51.146;17.120;2023-12-04T05:48:21;100748.20;;;-9.60
66372;BMP180;53168;51.146;17.120;2023-12-04T05:50:55;100742.80;;;-9.54
66372;BMP180;53168;51.146;17.120;2023-12-04T05:53:32;100748.40;;;-9.58
66372;BMP180;53168;51.146;17.120;2023-12-04T05:56:09;100742.60;;;-9.60
66372;BMP180;53168;51.146;17.120;2023-12-04T05:58:43;100747.80;;;-9.70
66372;BMP180;53168;51.146;17.120;2023-12-04T06:01:18;100744.40;;;-9.70
66372;BMP180;53168;51.146;17.120;2023-12-04T06:03:53;100741.40;;;-9.80
66372;BMP180;53168;51.146;17.120;2023-12-04T06:06:30;100739.80;;;-9.86
66372;BMP180;53168;51.146;17.120;2023-12-04T06:09:07;100735.80;;;-9.90
66372;BMP180;53168;51.146;17.120;2023-12-04T06:11:42;100737.80;;;-10.00
66372;BMP180;53168;51.146;17.120;2023-12-04T06:14:19;100736.80;;;-10.00
66372;BMP180;53168;51.146;17.120;2023-12-04T06:16:55;100728.20;;;-10.10
66372;BMP180;53168;51.146;17.120;2023-12-04T06:19:32;100737.40;;;-10.14
66372;BMP180;53168;51.146;17.120;2023-12-04T06:22:08;100743.40;;;-10.20
66372;BMP180;53168;51.146;17.120;2023-12-04T06:24:44;100743.00;;;-10.22
66372;BMP180;53168;51.146;17.120;2023-12-04T06:27:20;100745.00;;;-10.30
66372;BMP180;53168;51.146;17.120;2023-12-04T06:29:55;100748.20;;;-10.30
66372;BMP180;53168;51.146;17.120;2023-12-04T06:32:31;100748.60;;;-10.36
66372;BMP180;53168;51.146;17.120;2023-12-04T06:35:09;100744.40;;;-10.36
66372;BMP180;53168;51.146;17.120;2023-12-04T06:37:53;100742.80;;;-10.32
66372;BMP180;53168;51.146;17.120;2023-12-04T06:40:29;100740.80;;;-10.30
66372;BMP180;53168;51.146;17.120;2023-12-04T06:43:05;100732.00;;;-10.30
66372;BMP180;53168;51.146;17.120;2023-12-04T06:45:41;100734.80;;;-10.30
66372;BMP180;53168;51.146;17.120;2023-12-04T06:48:16;100736.60;;;-10.22
66372;BMP180;53168;51.146;17.120;2023-12-04T06:50:54;100728.20;;;-10.20
66372;BMP180;53168;51.146;17.120;2023-12-04T06:53:28;100724.20;;;-10.20
66372;BMP180;53168;51.146;17.120;2023-12-04T06:56:03;100723.40;;;-10.10
66372;BMP180;53168;51.146;17.120;2023-12-04T06:58:37;100717.40;;;-10.00
66372;BMP180;53168;51.146;17.120;2023-12-04T07:01:11;100721.00;;;-10.00
66372;BMP180;53168;51.146;17.120;2023-12-04T07:03:45;100720.00;;;-9.90
66372;BMP180;53168;51.146;17.120;2023-12-04T07:06:20;100717.00;;;-9.80
66372;BMP180;53168;51.146;17.120;2023-12-04T07:09:09;100711.20;;;-9.78
66372;BMP180;53168;51.146;17.120;2023-12-04T07:12:24;100723.20;;;-9.70
66372;BMP180;53168;51.146;17.120;2023-12-04T07:15:11;100721.80;;;-9.60
66372;BMP180;53168;51.146;17.120;2023-12-04T07:17:53;100726.60;;;-9.52
66372;BMP180;53168;51.146;17.120;2023-12-04T07:20:29;100730.20;;;-9.50
66372;BMP180;53168;51.146;17.120;2023-12-04T07:23:06;100734.00;;;-9.32
66372;BMP180;53168;51.146;17.120;2023-12-04T07:25:42;100731.40;;;-9.20
66372;BMP180;53168;51.146;17.120;2023-12-04T07:28:17;100728.20;;;-9.06
66372;BMP180;53168;51.146;17.120;2023-12-04T07:30:51;100731.40;;;-8.88
66372;BMP180;53168;51.146;17.120;2023-12-04T07:33:29;100728.60;;;-8.70
66372;BMP180;53168;51.146;17.120;2023-12-04T07:36:06;100732.60;;;-8.50
66372;BMP180;53168;51.146;17.120;2023-12-04T07:38:40;100736.60;;;-8.30
66372;BMP180;53168;51.146;17.120;2023-12-04T07:41:15;100734.00;;;-8.20
66372;BMP180;53168;51.146;17.120;2023-12-04T07:44:24;100726.60;;;-8.00
66372;BMP180;53168;51.146;17.120;2023-12-04T07:47:50;100725.40;;;-7.80
66372;BMP180;53168;51.146;17.120;2023-12-04T07:50:28;100726.80;;;-7.60
66372;BMP180;53168;51.146;17.120;2023-12-04T07:53:19;100724.60;;;-7.40
66372;BMP180;53168;51.146;17.120;2023-12-04T07:56:09;100722.60;;;-7.24
66372;BMP180;53168;51.146;17.120;2023-12-04T07:58:43;100722.60;;;-7.10
66372;BMP180;53168;51.146;17.120;2023-12-04T08:01:19;100721.40;;;-7.00
66372;BMP180;53168;51.146;17.120;2023-12-04T08:03:53;100709.40;;;-6.80
66372;BMP180;53168;51.146;17.120;2023-12-04T08:06:27;100711.80;;;-6.70
66372;BMP180;53168;51.146;17.120;2023-12-04T08:09:02;100710.00;;;-6.50
66372;BMP180;53168;51.146;17.120;2023-12-04T08:12:10;100710.80;;;-6.40
66372;BMP180;53168;51.146;17.120;2023-12-04T08:14:56;100692.80;;;-6.20
66372;BMP180;53168;51.146;17.120;2023-12-04T08:18:12;100697.80;;;-5.98
66372;BMP180;53168;51.146;17.120;2023-12-04T08:20:47;100702.80;;;-5.68
66372;BMP180;53168;51.146;17.120;2023-12-04T08:27:43;100695.20;;;-5.10
66372;BMP180;53168;51.146;17.120;2023-12-04T08:30:44;100697.60;;;-5.00
66372;BMP180;53168;51.146;17.120;2023-12-04T08:33:56;100699.80;;;-4.90
66372;BMP180;53168;51.146;17.120;2023-12-04T08:37:22;100702.40;;;-4.80
66372;BMP180;53168;51.146;17.120;2023-12-04T08:40:44;100700.80;;;-4.70
66372;BMP180;53168;51.146;17.120;2023-12-04T09:05:28;100692.60;;;-4.04
66372;BMP180;53168;51.146;17.120;2023-12-04T09:08:03;100690.80;;;-3.90
66372;BMP180;53168;51.146;17.120;2023-12-04T09:10:39;100693.00;;;-3.90
66372;BMP180;53168;51.146;17.120;2023-12-04T09:13:33;100687.20;;;-3.90
66372;BMP180;53168;51.146;17.120;2023-12-04T09:16:09;100686.80;;;-3.90
66372;BMP180;53168;51.146;17.120;2023-12-04T09:18:43;100681.60;;;-3.80
66372;BMP180;53168;51.146;17.120;2023-12-04T09:21:18;100684.40;;;-3.74
66372;BMP180;53168;51.146;17.120;2023-12-04T09:23:52;100679.20;;;-3.62
66372;BMP180;53168;51.146;17.120;2023-12-04T09:26:26;100678.20;;;-3.60
66372;BMP180;53168;51.146;17.120;2023-12-04T09:29:00;100682.20;;;-3.50
66372;BMP180;53168;51.146;17.120;2023-12-04T09:31:40;100684.80;;;-3.40
66372;BMP180;53168;51.146;17.120;2023-12-04T09:34:33;100679.00;;;-3.30
66372;BMP180;53168;51.146;17.120;2023-12-04T09:37:26;100678.20;;;-3.20
66372;BMP180;53168;51.146;17.120;2023-12-04T09:40:07;100672.40;;;-3.10
66372;BMP180;53168;51.146;17.120;2023-12-04T09:42:44;100679.00;;;-2.98
66372;BMP180;53168;51.146;17.120;2023-12-04T09:45:25;100673.80;;;-2.88
66372;BMP180;53168;51.146;17.120;2023-12-04T09:48:00;100670.60;;;-2.80
66372;BMP180;53168;51.146;17.120;2023-12-04T09:50:34;100659.40;;;-2.70
66372;BMP180;53168;51.146;17.120;2023-12-04T09:53:13;100656.60;;;-2.70
66372;BMP180;53168;51.146;17.120;2023-12-04T09:55:50;100649.80;;;-2.60
66372;BMP180;53168;51.146;17.120;2023-12-04T09:58:29;100643.40;;;-2.50
66372;BMP180;53168;51.146;17.120;2023-12-04T10:01:05;100632.80;;;-2.40
66372;BMP180;53168;51.146;17.120;2023-12-04T10:03:41;100624.40;;;-2.36
66372;BMP180;53168;51.146;17.120;2023-12-04T10:06:18;100613.40;;;-2.30
66372;BMP180;53168;51.146;17.120;2023-12-04T10:08:58;100606.00;;;-2.20
66372;BMP180;53168;51.146;17.120;2023-12-04T10:11:31;100602.00;;;-2.08
66372;BMP180;53168;51.146;17.120;2023-12-04T10:14:15;100605.60;;;-1.90
66372;BMP180;53168;51.146;17.120;2023-12-04T10:16:50;100601.00;;;-1.72
66372;BMP180;53168;51.146;17.120;2023-12-04T10:19:27;100600.60;;;-1.60
66372;BMP180;53168;51.146;17.120;2023-12-04T10:22:09;100589.80;;;-1.50
66372;BMP180;53168;51.146;17.120;2023-12-04T10:24:44;100587.00;;;-1.40
66372;BMP180;53168;51.146;17.120;2023-12-04T10:27:18;100588.40;;;-1.40
66372;BMP180;53168;51.146;17.120;2023-12-04T10:29:59;100586.40;;;-1.40
66372;BMP180;53168;51.146;17.120;2023-12-04T10:32:33;100589.40;;;-1.40
66372;BMP180;53168;51.146;17.120;2023-12-04T10:35:14;100576.20;;;-1.30
66372;BMP180;53168;51.146;17.120;2023-12-04T10:37:50;100571.80;;;-1.20
66372;BMP180;53168;51.146;17.120;2023-12-04T10:40:35;100573.40;;;-1.20
66372;BMP180;53168;51.146;17.120;2023-12-04T10:43:25;100576.80;;;-1.10
66372;BMP180;53168;51.146;17.120;2023-12-04T10:46:08;100574.40;;;-1.08
66372;BMP180;53168;51.146;17.120;2023-12-04T10:48:45;100568.00;;;-1.08
66372;BMP180;53168;51.146;17.120;2023-12-04T10:51:26;100568.40;;;-1.10
66372;BMP180;53168;51.146;17.120;2023-12-04T10:54:03;100566.20;;;-1.10
66372;BMP180;53168;51.146;17.120;2023-12-04T10:56:46;100570.60;;;-1.00
66372;BMP180;53168;51.146;17.120;2023-12-04T10:59:36;100564.80;;;-1.00
66372;BMP180;53168;51.146;17.120;2023-12-04T11:02:27;100569.60;;;-0.92
66372;BMP180;53168;51.146;17.120;2023-12-04T11:05:14;100557.80;;;-0.80
66372;BMP180;53168;51.146;17.120;2023-12-04T11:07:52;100549.80;;;-0.46
66372;BMP180;53168;51.146;17.120;2023-12-04T11:10:57;100550.60;;;-0.20
66372;BMP180;53168;51.146;17.120;2023-12-04T11:13:39;100549.60;;;0.00
66372;BMP180;53168;51.146;17.120;2023-12-04T11:16:25;100545.00;;;0.20
66372;BMP180;53168;51.146;17.120;2023-12-04T11:19:10;100545.00;;;0.40
66372;BMP180;53168;51.146;17.120;2023-12-04T11:21:48;100536.20;;;0.48
66372;BMP180;53168;51.146;17.120;2023-12-04T11:24:24;100533.40;;;0.70
66372;BMP180;53168;51.146;17.120;2023-12-04T11:27:00;100529.60;;;0.92
66372;BMP180;53168;51.146;17.120;2023-12-04T11:29:37;100529.60;;;1.20
66372;BMP180;53168;51.146;17.120;2023-12-04T11:32:29;100530.40;;;1.40
66372;BMP180;53168;51.146;17.120;2023-12-04T11:35:06;100514.80;;;1.86
66372;BMP180;53168;51.146;17.120;2023-12-04T11:37:47;100506.60;;;2.26
66372;BMP180;53168;51.146;17.120;2023-12-04T11:40:23;100505.60;;;2.48
66372;BMP180;53168;51.146;17.120;2023-12-04T11:43:42;100509.40;;;2.60
66372;BMP180;53168;51.146;17.120;2023-12-04T12:04:09;100473.00;;;3.24
66372;BMP180;53168;51.146;17.120;2023-12-04T12:06:43;100472.60;;;3.36
66372;BMP180;53168;51.146;17.120;2023-12-04T12:09:18;100475.00;;;3.10
66372;BMP180;53168;51.146;17.120;2023-12-04T12:11:53;100487.00;;;2.56
66372;BMP180;53168;51.146;17.120;2023-12-04T12:14:27;100473.80;;;2.10
66372;BMP180;53168;51.146;17.120;2023-12-04T12:17:03;100472.00;;;1.76
66372;BMP180;53168;51.146;17.120;2023-12-04T12:19:37;100474.40;;;1.40
66372;BMP180;53168;51.146;17.120;2023-12-04T12:22:12;100467.40;;;1.08
66372;BMP180;53168;51.146;17.120;2023-12-04T12:24:47;100466.80;;;0.78
66372;BMP180;53168;51.146;17.120;2023-12-04T12:27:21;100472.40;;;0.40
66372;BMP180;53168;51.146;17.120;2023-12-04T12:29:55;100465.00;;;0.10
66372;BMP180;53168;51.146;17.120;2023-12-04T12:32:30;100465.40;;;-0.10
66372;BMP180;53168;51.146;17.120;2023-12-04T12:35:07;100464.00;;;-0.30
66372;BMP180;53168;51.146;17.120;2023-12-04T12:37:43;100459.20;;;-0.50
66372;BMP180;53168;51.146;17.120;2023-12-04T12:40:18;100455.80;;;-0.60
66372;BMP180;53168;51.146;17.120;2023-12-04T12:42:52;100460.00;;;-0.70
66372;BMP180;53168;51.146;17.120;2023-12-04T12:45:27;100454.40;;;-0.82
66372;BMP180;53168;51.146;17.120;2023-12-04T12:48:00;100442.20;;;-1.00
66372;BMP180;53168;51.146;17.120;2023-12-04T12:50:36;100438.20;;;-1.10
66372;BMP180;53168;51.146;17.120;2023-12-04T12:53:12;100431.80;;;-1.10
66372;BMP180;53168;51.146;17.120;2023-12-04T12:55:46;100432.40;;;-1.20
66372;BMP180;53168;51.146;17.120;2023-12-04T12:58:22;100429.00;;;-1.26
66372;BMP180;53168;51.146;17.120;2023-12-04T13:00:57;100424.40;;;-1.30
66372;BMP180;53168;51.146;17.120;2023-12-04T13:03:31;100415.60;;;-1.20
66372;BMP180;53168;51.146;17.120;2023-12-04T13:06:07;100415.00;;;-1.20
66372;BMP180;53168;51.146;17.120;2023-12-04T13:08:41;100408.20;;;-1.16
66372;BMP180;53168;51.146;17.120;2023-12-04T13:11:15;100401.20;;;-1.20
66372;BMP180;53168;51.146;17.120;2023-12-04T13:13:49;100396.00;;;-1.40
66372;BMP180;53168;51.146;17.120;2023-12-04T13:16:25;100389.40;;;-1.50
66372;BMP180;53168;51.146;17.120;2023-12-04T13:19:02;100391.00;;;-1.60
66372;BMP180;53168;51.146;17.120;2023-12-04T14:45:23;100341.80;;;-2.58
66372;BMP180;53168;51.146;17.120;2023-12-04T14:48:09;100339.60;;;-2.76
66372;BMP180;53168;51.146;17.120;2023-12-04T14:50:43;100337.20;;;-2.80
66372;BMP180;53168;51.146;17.120;2023-12-04T14:53:18;100332.80;;;-2.80
66372;BMP180;53168;51.146;17.120;2023-12-04T14:56:04;100331.80;;;-2.90
66372;BMP180;53168;51.146;17.120;2023-12-04T14:59:16;100326.20;;;-2.96
66372;BMP180;53168;51.146;17.120;2023-12-04T15:02:07;100326.80;;;-3.00
66372;BMP180;53168;51.146;17.120;2023-12-04T15:05:18;100328.60;;;-3.00
66372;BMP180;53168;51.146;17.120;2023-12-04T15:08:31;100322.20;;;-3.00
66372;BMP180;53168;51.146;17.120;2023-12-04T15:11:24;100314.60;;;-3.00
66372;BMP180;53168;51.146;17.120;2023-12-04T15:14:18;100319.20;;;-3.00
66372;BMP180;53168;51.146;17.120;2023-12-04T15:17:04;100311.20;;;-3.00
66372;BMP180;53168;51.146;17.120;2023-12-04T15:22:54;100306.00;;;-3.06
66372;BMP180;53168;51.146;17.120;2023-12-04T15:25:28;100302.60;;;-3.10
66372;BMP180;53168;51.146;17.120;2023-12-04T15:28:02;100300.00;;;-3.10
66372;BMP180;53168;51.146;17.120;2023-12-04T15:30:42;100296.80;;;-3.10
66372;BMP180;53168;51.146;17.120;2023-12-04T15:33:17;100287.00;;;-3.20
66372;BMP180;53168;51.146;17.120;2023-12-04T15:35:53;100290.60;;;-3.20
66372;BMP180;53168;51.146;17.120;2023-12-04T15:38:27;100287.40;;;-3.18
66372;BMP180;53168;51.146;17.120;2023-12-04T15:41:01;100291.80;;;-3.20
66372;BMP180;53168;51.146;17.120;2023-12-04T15:43:36;100278.20;;;-3.20
66372;BMP180;53168;51.146;17.120;2023-12-04T15:46:10;100276.80;;;-3.20
66372;BMP180;53168;51.146;17.120;2023-12-04T15:48:44;100278.00;;;-3.10
66372;BMP180;53168;51.146;17.120;2023-12-04T15:51:18;100281.60;;;-3.10
66372;BMP180;53168;51.146;17.120;2023-12-04T15:53:52;100287.60;;;-3.10
66372;BMP180;53168;51.146;17.120;2023-12-04T15:56:26;100288.40;;;-3.10
66372;BMP180;53168;51.146;17.120;2023-12-04T15:59:00;100281.80;;;-3.08
66372;BMP180;53168;51.146;17.120;2023-12-04T16:01:33;100288.80;;;-3.00
66372;BMP180;53168;51.146;17.120;2023-12-04T16:04:07;100289.20;;;-3.00
66372;BMP180;53168;51.146;17.120;2023-12-04T16:06:41;100290.60;;;-3.00
66372;BMP180;53168;51.146;17.120;2023-12-04T16:09:15;100283.60;;;-3.00
66372;BMP180;53168;51.146;17.120;2023-12-04T16:11:49;100280.60;;;-3.00
66372;BMP180;53168;51.146;17.120;2023-12-04T16:14:23;100278.80;;;-3.00
66372;BMP180;53168;51.146;17.120;2023-12-04T16:16:58;100278.80;;;-3.00
66372;BMP180;53168;51.146;17.120;2023-12-04T16:19:32;100283.40;;;-3.00
66372;BMP180;53168;51.146;17.120;2023-12-04T16:22:09;100281.00;;;-3.00
66372;BMP180;53168;51.146;17.120;2023-12-04T16:24:43;100277.60;;;-3.00
66372;BMP180;53168;51.146;17.120;2023-12-04T16:27:17;100275.00;;;-3.00
66372;BMP180;53168;51.146;17.120;2023-12-04T16:29:51;100262.00;;;-3.00
66372;BMP180;53168;51.146;17.120;2023-12-04T16:32:34;100255.60;;;-3.00
66372;BMP180;53168;51.146;17.120;2023-12-04T16:35:11;100252.80;;;-3.00
66372;BMP180;53168;51.146;17.120;2023-12-04T16:37:49;100249.60;;;-3.00
66372;BMP180;53168;51.146;17.120;2023-12-04T16:40:23;100246.00;;;-3.10
66372;BMP180;53168;51.146;17.120;2023-12-04T16:42:58;100254.00;;;-3.10
66372;BMP180;53168;51.146;17.120;2023-12-04T16:45:34;100255.00;;;-3.16
66372;BMP180;53168;51.146;17.120;2023-12-04T16:48:08;100248.00;;;-3.20
66372;BMP180;53168;51.146;17.120;2023-12-04T16:50:43;100249.20;;;-3.20
66372;BMP180;53168;51.146;17.120;2023-12-04T16:53:17;100252.80;;;-3.30
66372;BMP180;53168;51.146;17.120;2023-12-04T16:55:50;100245.80;;;-3.30